createdAt,value
2022-12-05T00:00:52.050Z,53.82
2022-12-05T00:01:52.061Z,48.66
2022-12-05T00:02:52.053Z,49.31
2022-12-05T00:03:52.064Z,49.31
2022-12-05T00:04:52.045Z,53.33
2022-12-05T00:05:52.025Z,50.27
2022-12-05T00:06:52.005Z,49.47
2022-12-05T00:07:52.044Z,50.43
2022-12-05T00:08:52.004Z,50.76
2022-12-05T00:09:52.017Z,50.92
2022-12-05T00:10:51.985Z,54.14
2022-12-05T00:11:51.977Z,48.98
2022-12-05T00:12:51.960Z,50.43
2022-12-05T00:13:51.967Z,50.76
2022-12-05T00:14:51.960Z,48.66
2022-12-05T00:15:51.953Z,51.08
2022-12-05T00:16:52.003Z,48.50
2022-12-05T00:17:51.938Z,50.11
2022-12-05T00:18:51.922Z,49.15
2022-12-05T00:19:56.510Z,48.18
2022-12-05T00:20:53.929Z,52.21
2022-12-05T00:21:51.965Z,49.95
2022-12-05T00:22:51.913Z,49.47
2022-12-05T00:23:51.903Z,51.08
2022-12-05T00:24:51.890Z,49.31
2022-12-05T00:25:51.891Z,48.98
2022-12-05T00:26:51.889Z,47.86
2022-12-05T00:27:51.907Z,48.50
2022-12-05T00:28:51.855Z,49.47
2022-12-05T00:29:51.853Z,49.47
2022-12-05T00:30:51.859Z,53.33
2022-12-05T00:31:51.877Z,51.56
2022-12-05T00:32:51.832Z,51.08
2022-12-05T00:33:51.828Z,51.24
2022-12-05T00:34:51.819Z,53.01
2022-12-05T00:35:51.808Z,53.33
2022-12-05T00:36:51.822Z,48.02
2022-12-05T00:37:51.793Z,52.05
2022-12-05T00:38:51.782Z,49.31
2022-12-05T00:39:51.792Z,53.50
2022-12-05T00:40:51.763Z,48.50
2022-12-05T00:41:51.772Z,54.62
2022-12-05T00:42:52.591Z,49.47
2022-12-05T00:43:51.753Z,48.02
2022-12-05T00:44:51.756Z,49.79
2022-12-05T00:45:51.808Z,51.56
2022-12-05T00:46:51.733Z,53.33
2022-12-05T00:47:51.745Z,50.76
2022-12-05T00:48:51.729Z,53.01
2022-12-05T00:49:51.720Z,48.66
2022-12-05T00:50:51.712Z,51.88
2022-12-05T00:51:51.719Z,49.47
2022-12-05T00:52:51.712Z,51.88
2022-12-05T00:53:51.683Z,52.53
2022-12-05T00:54:51.680Z,48.02
2022-12-05T00:55:51.666Z,50.76
2022-12-05T00:56:51.665Z,48.18
2022-12-05T00:57:51.661Z,51.88
2022-12-05T00:58:51.658Z,48.98
2022-12-05T00:59:51.650Z,51.24
2022-12-05T01:00:51.671Z,49.95
2022-12-05T01:01:51.748Z,51.24
2022-12-05T01:02:51.665Z,52.69
2022-12-05T01:03:51.617Z,49.31
2022-12-05T01:04:51.612Z,48.66
2022-12-05T01:05:51.627Z,49.15
2022-12-05T01:06:51.603Z,49.15
2022-12-05T01:07:51.665Z,52.21
2022-12-05T01:08:51.587Z,52.05
2022-12-05T01:09:51.583Z,48.18
2022-12-05T01:10:51.601Z,48.34
2022-12-05T01:11:51.565Z,48.18
2022-12-05T01:12:51.564Z,48.98
2022-12-05T01:13:51.549Z,48.18
2022-12-05T01:14:51.537Z,52.53
2022-12-05T01:15:51.536Z,51.88
2022-12-05T01:16:51.601Z,53.17
2022-12-05T01:17:51.530Z,48.66
2022-12-05T01:18:51.519Z,51.88
2022-12-05T01:19:51.505Z,53.98
2022-12-05T01:20:51.501Z,51.72
2022-12-05T01:21:51.518Z,53.33
2022-12-05T01:22:51.493Z,53.82
2022-12-05T01:23:51.486Z,53.17
2022-12-05T01:24:51.477Z,51.24
2022-12-05T01:25:51.477Z,51.08
2022-12-05T01:26:51.485Z,48.98
2022-12-05T01:27:51.461Z,50.76
2022-12-05T01:28:51.496Z,47.53
2022-12-05T01:29:51.450Z,49.47
2022-12-05T01:30:51.451Z,49.31
2022-12-05T01:31:51.545Z,50.27
2022-12-05T01:32:51.434Z,53.17
2022-12-05T01:33:51.417Z,50.11
2022-12-05T01:34:51.413Z,47.86
2022-12-05T01:35:51.409Z,47.70
2022-12-05T01:36:51.400Z,47.70
2022-12-05T01:37:51.404Z,52.37
2022-12-05T01:38:51.420Z,51.72
2022-12-05T01:39:51.376Z,48.50
2022-12-05T01:40:51.372Z,51.56
2022-12-05T01:41:51.372Z,50.92
2022-12-05T01:42:51.367Z,48.50
2022-12-05T01:43:51.399Z,50.76
2022-12-05T01:44:51.347Z,51.88
2022-12-05T01:45:51.375Z,48.02
2022-12-05T01:46:51.323Z,51.24
2022-12-05T01:47:51.322Z,52.37
2022-12-05T01:48:51.315Z,53.82
2022-12-05T01:49:51.343Z,53.66
2022-12-05T01:50:51.303Z,48.02
2022-12-05T01:51:51.302Z,48.18
2022-12-05T01:52:51.288Z,50.11
2022-12-05T01:53:51.293Z,51.24
2022-12-05T01:54:51.321Z,54.62
2022-12-05T01:55:51.271Z,48.82
2022-12-05T01:56:51.262Z,54.95
2022-12-05T01:57:51.263Z,50.60
2022-12-05T01:58:51.247Z,55.27
2022-12-05T01:59:51.280Z,54.79
2022-12-05T02:00:51.273Z,48.50
2022-12-05T02:01:52.314Z,49.15
2022-12-05T02:02:51.283Z,47.86
2022-12-05T02:03:51.217Z,49.15
2022-12-05T02:04:51.213Z,51.88
2022-12-05T02:05:51.209Z,50.43
2022-12-05T02:06:51.201Z,51.88
2022-12-05T02:07:51.263Z,51.24
2022-12-05T02:08:51.182Z,53.66
2022-12-05T02:09:51.181Z,49.47
2022-12-05T02:10:51.170Z,48.34
2022-12-05T02:11:51.204Z,50.43
2022-12-05T02:12:51.172Z,51.72
2022-12-05T02:13:51.138Z,53.33
2022-12-05T02:14:51.128Z,52.85
2022-12-05T02:15:55.485Z,53.98
2022-12-05T02:16:53.178Z,50.11
2022-12-05T02:17:51.113Z,51.24
2022-12-05T02:18:51.113Z,49.95
2022-12-05T02:19:51.100Z,49.31
2022-12-05T02:20:51.095Z,53.50
2022-12-05T02:21:51.104Z,54.79
2022-12-05T02:22:51.077Z,53.66
2022-12-05T02:23:51.070Z,55.11
2022-12-05T02:24:51.068Z,51.08
2022-12-05T02:25:51.052Z,53.01
2022-12-05T02:26:51.053Z,56.88
2022-12-05T02:27:51.061Z,52.53
2022-12-05T02:28:51.033Z,55.11
2022-12-05T02:29:51.033Z,55.75
2022-12-05T02:30:51.029Z,53.01
2022-12-05T02:31:51.130Z,55.27
2022-12-05T02:32:51.016Z,50.60
2022-12-05T02:33:51.007Z,51.72
2022-12-05T02:34:50.995Z,52.85
2022-12-05T02:35:50.995Z,56.24
2022-12-05T02:36:51.001Z,52.05
2022-12-05T02:37:50.977Z,50.43
2022-12-05T02:38:50.987Z,50.92
2022-12-05T02:39:50.965Z,51.88
2022-12-05T02:40:50.970Z,53.17
2022-12-05T02:41:50.940Z,50.60
2022-12-05T02:42:50.948Z,52.21
2022-12-05T02:43:50.950Z,52.53
2022-12-05T02:44:50.930Z,56.88
2022-12-05T02:45:51.006Z,54.30
2022-12-05T02:46:50.939Z,53.82
2022-12-05T02:47:50.935Z,50.11
2022-12-05T02:48:50.909Z,50.43
2022-12-05T02:49:50.907Z,50.60
2022-12-05T02:50:50.897Z,52.05
2022-12-05T02:51:50.897Z,48.50
2022-12-05T02:52:50.907Z,47.86
2022-12-05T02:53:50.874Z,51.08
2022-12-05T02:54:50.868Z,49.15
2022-12-05T02:55:50.872Z,53.50
2022-12-05T02:56:50.832Z,54.46
2022-12-05T02:57:50.874Z,49.79
2022-12-05T02:58:50.847Z,52.05
2022-12-05T02:59:50.812Z,55.43
2022-12-05T03:00:50.866Z,52.85
2022-12-05T03:01:50.978Z,58.33
2022-12-05T03:02:50.801Z,54.30
2022-12-05T03:03:50.839Z,55.59
2022-12-05T03:04:50.793Z,53.50
2022-12-05T03:05:50.765Z,50.11
2022-12-05T03:06:50.777Z,52.05
2022-12-05T03:07:50.812Z,56.40
2022-12-05T03:08:50.781Z,50.92
2022-12-05T03:09:50.765Z,54.30
2022-12-05T03:10:50.760Z,54.95
2022-12-05T03:11:50.734Z,52.05
2022-12-05T03:12:50.743Z,52.85
2022-12-05T03:13:50.734Z,51.88
2022-12-05T03:14:50.722Z,54.14
2022-12-05T03:15:50.706Z,48.98
2022-12-05T03:16:50.813Z,51.24
2022-12-05T03:17:50.699Z,49.95
2022-12-05T03:18:50.708Z,57.20
2022-12-05T03:19:50.703Z,49.63
2022-12-05T03:20:50.671Z,51.88
2022-12-05T03:21:50.666Z,52.37
2022-12-05T03:22:50.670Z,54.30
2022-12-05T03:23:50.683Z,54.14
2022-12-05T03:24:50.648Z,59.14
2022-12-05T03:25:50.654Z,57.36
2022-12-05T03:26:50.631Z,52.69
2022-12-05T03:27:50.638Z,52.85
2022-12-05T03:28:50.640Z,53.98
2022-12-05T03:29:50.638Z,56.07
2022-12-05T03:30:50.691Z,55.43
2022-12-05T03:31:50.616Z,54.95
2022-12-05T03:32:50.590Z,50.92
2022-12-05T03:33:50.613Z,58.81
2022-12-05T03:34:50.594Z,57.04
2022-12-05T03:35:50.584Z,53.33
2022-12-05T03:36:50.554Z,55.43
2022-12-05T03:37:51.559Z,52.37
2022-12-05T03:38:50.554Z,54.14
2022-12-05T03:39:50.567Z,53.98
2022-12-05T03:40:50.575Z,55.27
2022-12-05T03:41:50.531Z,52.05
2022-12-05T03:42:50.526Z,54.62
2022-12-05T03:43:50.530Z,56.88
2022-12-05T03:44:50.530Z,56.07
2022-12-05T03:45:50.584Z,56.07
2022-12-05T03:46:50.507Z,57.20
2022-12-05T03:47:50.503Z,54.95
2022-12-05T03:48:50.483Z,56.56
2022-12-05T03:49:50.482Z,55.27
2022-12-05T03:50:50.482Z,58.33
2022-12-05T03:51:50.463Z,58.01
2022-12-05T03:53:18.056Z,53.01
2022-12-05T03:53:52.458Z,55.11
2022-12-05T03:54:50.451Z,57.04
2022-12-05T03:55:50.454Z,55.59
2022-12-05T03:56:50.433Z,54.62
2022-12-05T03:57:50.430Z,54.79
2022-12-05T03:58:50.419Z,55.75
2022-12-05T03:59:50.413Z,55.75
2022-12-05T04:00:50.405Z,55.43
2022-12-05T04:01:50.425Z,53.66
2022-12-05T04:02:50.395Z,57.36
2022-12-05T04:03:50.453Z,64.45
2022-12-05T04:04:50.382Z,57.36
2022-12-05T04:05:50.390Z,57.52
2022-12-05T04:06:50.364Z,56.40
2022-12-05T04:07:50.412Z,52.37
2022-12-05T04:08:50.360Z,56.56
2022-12-05T04:09:50.345Z,55.75
2022-12-05T04:10:50.358Z,54.30
2022-12-05T04:11:50.334Z,56.56
2022-12-05T04:12:50.324Z,54.79
2022-12-05T04:13:50.330Z,61.23
2022-12-05T04:14:50.315Z,56.72
2022-12-05T04:15:50.343Z,55.91
2022-12-05T04:16:50.305Z,57.20
2022-12-05T04:17:53.465Z,60.75
2022-12-05T04:18:51.280Z,54.79
2022-12-05T04:19:50.275Z,55.11
2022-12-05T04:20:50.288Z,59.14
2022-12-05T04:21:50.262Z,55.75
2022-12-05T04:22:50.277Z,63.97
2022-12-05T04:23:50.257Z,58.01
2022-12-05T04:24:50.239Z,57.52
2022-12-05T04:25:50.233Z,57.36
2022-12-05T04:26:50.226Z,57.52
2022-12-05T04:27:50.230Z,56.56
2022-12-05T04:28:50.207Z,58.33
2022-12-05T04:29:50.197Z,57.20
2022-12-05T04:30:50.272Z,57.36
2022-12-05T04:31:50.190Z,58.97
2022-12-05T04:32:50.179Z,55.91
2022-12-05T04:33:50.167Z,57.04
2022-12-05T04:34:50.192Z,56.40
2022-12-05T04:35:50.166Z,54.79
2022-12-05T04:36:50.142Z,58.97
2022-12-05T04:37:50.138Z,64.13
2022-12-05T04:38:50.145Z,58.01
2022-12-05T04:39:50.133Z,57.52
2022-12-05T04:40:50.125Z,60.91
2022-12-05T04:41:50.113Z,57.20
2022-12-05T04:42:50.132Z,57.85
2022-12-05T04:43:50.104Z,58.33
2022-12-05T04:44:50.094Z,62.52
2022-12-05T04:45:50.094Z,57.52
2022-12-05T04:46:50.181Z,60.26
2022-12-05T04:47:50.071Z,58.01
2022-12-05T04:48:50.061Z,58.01
2022-12-05T04:49:53.655Z,58.81
2022-12-05T04:50:51.063Z,60.91
2022-12-05T04:51:50.043Z,57.04
2022-12-05T04:52:50.056Z,59.94
2022-12-05T04:53:50.034Z,60.10
2022-12-05T04:54:50.028Z,61.55
2022-12-05T04:55:50.010Z,58.81
2022-12-05T04:56:50.017Z,54.95
2022-12-05T04:57:50.029Z,58.33
2022-12-05T04:58:49.995Z,58.49
2022-12-05T04:59:49.991Z,60.42
2022-12-05T05:00:49.977Z,58.81
2022-12-05T05:01:50.077Z,59.62
2022-12-05T05:02:50.055Z,57.85
2022-12-05T05:03:49.953Z,57.52
2022-12-05T05:04:49.958Z,57.85
2022-12-05T05:05:49.953Z,57.69
2022-12-05T05:06:49.952Z,58.33
2022-12-05T05:07:50.017Z,60.26
2022-12-05T05:08:49.938Z,56.56
2022-12-05T05:09:49.925Z,60.10
2022-12-05T05:10:49.914Z,57.36
2022-12-05T05:11:49.906Z,60.42
2022-12-05T05:12:49.910Z,61.55
2022-12-05T05:13:49.921Z,59.62
2022-12-05T05:14:49.885Z,60.75
2022-12-05T05:15:49.934Z,66.06
2022-12-05T05:16:49.874Z,64.78
2022-12-05T05:17:49.879Z,59.14
2022-12-05T05:18:49.867Z,59.62
2022-12-05T05:19:49.869Z,60.42
2022-12-05T05:20:49.854Z,60.42
2022-12-05T05:21:49.845Z,64.13
2022-12-05T05:22:49.877Z,61.07
2022-12-05T05:23:49.908Z,60.42
2022-12-05T05:24:49.852Z,57.69
2022-12-05T05:25:49.819Z,58.65
2022-12-05T05:26:55.523Z,63.49
2022-12-05T05:27:51.807Z,59.62
2022-12-05T05:28:49.825Z,59.94
2022-12-05T05:29:49.818Z,65.74
2022-12-05T05:30:49.812Z,59.14
2022-12-05T05:31:49.847Z,61.39
2022-12-05T05:32:49.784Z,60.59
2022-12-05T05:33:49.769Z,60.59
2022-12-05T05:34:49.798Z,59.46
2022-12-05T05:35:49.836Z,58.97
2022-12-05T05:36:49.749Z,60.10
2022-12-05T05:37:49.748Z,61.87
2022-12-05T05:38:49.736Z,59.62
2022-12-05T05:39:49.771Z,62.84
2022-12-05T05:40:49.713Z,60.10
2022-12-05T05:41:49.703Z,61.71
2022-12-05T05:42:50.739Z,63.65
2022-12-05T05:43:49.690Z,63.16
2022-12-05T05:44:49.692Z,61.07
2022-12-05T05:45:49.689Z,59.94
2022-12-05T05:46:49.746Z,63.00
2022-12-05T05:47:49.671Z,58.33
2022-12-05T05:48:49.660Z,60.42
2022-12-05T05:49:49.648Z,59.46
2022-12-05T05:50:49.658Z,60.10
2022-12-05T05:51:49.641Z,61.55
2022-12-05T05:52:49.636Z,62.52
2022-12-05T05:53:49.627Z,59.78
2022-12-05T05:54:49.621Z,61.23
2022-12-05T05:55:49.609Z,59.78
2022-12-05T05:56:49.624Z,61.55
2022-12-05T05:57:49.601Z,61.87
2022-12-05T05:58:49.593Z,60.75
2022-12-05T05:59:49.585Z,61.23
2022-12-05T06:00:49.581Z,59.46
2022-12-05T06:01:49.601Z,60.26
2022-12-05T06:02:49.677Z,60.91
2022-12-05T06:03:49.686Z,59.46
2022-12-05T06:04:49.573Z,60.91
2022-12-05T06:05:53.078Z,60.10
2022-12-05T06:06:50.540Z,57.20
2022-12-05T06:07:49.564Z,61.39
2022-12-05T06:08:49.526Z,61.07
2022-12-05T06:09:49.557Z,58.97
2022-12-05T06:10:49.519Z,58.81
2022-12-05T06:11:49.510Z,59.14
2022-12-05T06:12:49.513Z,60.26
2022-12-05T06:13:49.499Z,59.30
2022-12-05T06:14:49.491Z,61.23
2022-12-05T06:15:49.494Z,58.97
2022-12-05T06:16:49.516Z,59.62
2022-12-05T06:17:49.470Z,61.07
2022-12-05T06:18:49.470Z,60.26
2022-12-05T06:19:49.473Z,59.78
2022-12-05T06:20:49.473Z,59.62
2022-12-05T06:21:49.454Z,58.97
2022-12-05T06:22:49.670Z,59.14
2022-12-05T06:23:49.431Z,61.71
2022-12-05T06:24:49.437Z,60.91
2022-12-05T06:25:49.417Z,61.87
2022-12-05T06:26:49.425Z,61.23
2022-12-05T06:27:49.401Z,59.14
2022-12-05T06:28:49.422Z,63.49
2022-12-05T06:29:49.401Z,61.07
2022-12-05T06:30:49.401Z,61.71
2022-12-05T06:31:49.451Z,60.10
2022-12-05T06:32:49.382Z,61.87
2022-12-05T06:33:49.375Z,59.30
2022-12-05T06:34:49.361Z,59.14
2022-12-05T06:35:50.359Z,58.97
2022-12-05T06:36:49.458Z,58.97
2022-12-05T06:37:49.371Z,62.36
2022-12-05T06:38:49.353Z,59.62
2022-12-05T06:39:49.353Z,61.87
2022-12-05T06:40:49.328Z,61.71
2022-12-05T06:41:49.323Z,62.20
2022-12-05T06:42:49.348Z,60.75
2022-12-05T06:43:49.302Z,60.91
2022-12-05T06:44:49.309Z,62.20
2022-12-05T06:45:49.330Z,60.26
2022-12-05T06:46:49.306Z,59.30
2022-12-05T06:47:49.277Z,58.33
2022-12-05T06:48:49.274Z,59.78
2022-12-05T06:49:49.269Z,67.03
2022-12-05T06:50:49.257Z,59.94
2022-12-05T06:51:49.249Z,59.62
2022-12-05T06:52:49.243Z,61.55
2022-12-05T06:53:49.250Z,61.55
2022-12-05T06:54:49.255Z,62.68
2022-12-05T06:55:49.225Z,59.46
2022-12-05T06:56:49.217Z,60.10
2022-12-05T06:57:49.206Z,59.78
2022-12-05T06:58:49.208Z,60.91
2022-12-05T06:59:49.201Z,62.20
2022-12-05T07:00:49.258Z,65.26
2022-12-05T07:01:49.352Z,62.52
2022-12-05T07:02:49.252Z,60.42
2022-12-05T07:03:49.167Z,59.14
2022-12-05T07:04:49.246Z,65.10
2022-12-05T07:05:49.162Z,65.26
2022-12-05T07:06:50.974Z,62.20
2022-12-05T07:07:50.254Z,68.48
2022-12-05T07:08:49.125Z,60.42
2022-12-05T07:09:49.169Z,60.26
2022-12-05T07:10:49.128Z,61.39
2022-12-05T07:11:49.107Z,71.22
2022-12-05T07:12:49.106Z,61.55
2022-12-05T07:13:49.101Z,61.23
2022-12-05T07:14:50.171Z,61.55
2022-12-05T07:15:50.081Z,61.39
2022-12-05T07:16:49.130Z,58.81
2022-12-05T07:17:49.072Z,58.49
2022-12-05T07:18:49.061Z,59.94
2022-12-05T07:19:49.069Z,62.52
2022-12-05T07:21:11.147Z,61.39
2022-12-05T07:21:51.057Z,60.42
2022-12-05T07:22:49.037Z,61.07
2022-12-05T07:23:49.098Z,61.23
2022-12-05T07:24:49.022Z,60.59
2022-12-05T07:25:49.025Z,66.23
2022-12-05T07:26:49.109Z,61.87
2022-12-05T07:27:49.009Z,62.04
2022-12-05T07:28:49.129Z,73.96
2022-12-05T07:29:48.998Z,68.64
2022-12-05T07:30:48.976Z,64.78
2022-12-05T07:31:49.082Z,64.45
2022-12-05T07:32:48.993Z,61.39
2022-12-05T07:33:48.971Z,60.91
2022-12-05T07:34:54.733Z,60.59
2022-12-05T07:35:50.951Z,61.71
2022-12-05T07:36:48.943Z,66.06
2022-12-05T07:37:48.949Z,58.49
2022-12-05T07:38:48.964Z,60.42
2022-12-05T07:39:48.925Z,62.84
2022-12-05T07:40:48.925Z,64.94
2022-12-05T07:41:48.909Z,63.33
2022-12-05T07:42:48.897Z,60.91
2022-12-05T07:43:48.913Z,69.61
2022-12-05T07:44:48.917Z,64.45
2022-12-05T07:45:48.939Z,62.04
2022-12-05T07:46:48.885Z,59.94
2022-12-05T07:47:48.967Z,62.20
2022-12-05T07:48:48.873Z,60.26
2022-12-05T07:49:48.882Z,60.91
2022-12-05T07:50:48.844Z,59.78
2022-12-05T07:51:48.833Z,61.71
2022-12-05T07:52:48.899Z,59.78
2022-12-05T07:53:48.842Z,69.13
2022-12-05T07:54:48.845Z,60.75
2022-12-05T07:55:48.853Z,60.59
2022-12-05T07:56:48.813Z,60.91
2022-12-05T07:57:48.792Z,67.35
2022-12-05T07:58:48.801Z,79.12
2022-12-05T07:59:48.793Z,75.73
2022-12-05T08:00:48.811Z,78.63
2022-12-05T08:01:48.855Z,60.10
2022-12-05T08:02:48.809Z,63.16
2022-12-05T08:03:48.761Z,62.20
2022-12-05T08:04:48.750Z,60.91
2022-12-05T08:05:48.760Z,66.55
2022-12-05T08:06:48.747Z,61.71
2022-12-05T08:07:48.790Z,73.15
2022-12-05T08:08:48.732Z,67.84
2022-12-05T08:09:48.724Z,60.10
2022-12-05T08:10:48.729Z,59.30
2022-12-05T08:11:52.630Z,60.42
2022-12-05T08:12:49.700Z,63.00
2022-12-05T08:13:48.691Z,61.55
2022-12-05T08:14:48.688Z,58.17
2022-12-05T08:15:48.676Z,63.33
2022-12-05T08:16:48.740Z,58.97
2022-12-05T08:17:48.659Z,60.10
2022-12-05T08:18:48.673Z,61.87
2022-12-05T08:19:48.648Z,61.39
2022-12-05T08:20:48.647Z,61.71
2022-12-05T08:21:48.645Z,59.14
2022-12-05T08:22:48.641Z,60.42
2022-12-05T08:23:48.643Z,59.30
2022-12-05T08:24:51.902Z,61.07
2022-12-05T08:25:49.615Z,58.65
2022-12-05T08:26:48.610Z,59.14
2022-12-05T08:27:49.627Z,64.61
2022-12-05T08:28:48.607Z,60.75
2022-12-05T08:29:48.591Z,61.39
2022-12-05T08:30:48.613Z,66.23
2022-12-05T08:31:48.572Z,61.71
2022-12-05T08:32:48.584Z,59.30
2022-12-05T08:33:48.571Z,60.10
2022-12-05T08:34:48.555Z,61.87
2022-12-05T08:35:48.548Z,61.87
2022-12-05T08:36:48.542Z,62.04
2022-12-05T08:37:48.535Z,62.04
2022-12-05T08:38:48.548Z,59.94
2022-12-05T08:39:48.523Z,68.48
2022-12-05T08:40:48.519Z,61.87
2022-12-05T08:41:48.519Z,60.42
2022-12-05T08:42:48.507Z,63.97
2022-12-05T08:43:48.511Z,62.20
2022-12-05T08:44:48.487Z,63.97
2022-12-05T08:45:48.531Z,65.26
2022-12-05T08:46:48.485Z,61.71
2022-12-05T08:47:48.464Z,63.49
2022-12-05T08:48:48.443Z,62.20
2022-12-05T08:49:49.461Z,62.68
2022-12-05T08:50:48.458Z,65.10
2022-12-05T08:51:48.445Z,61.87
2022-12-05T08:52:48.436Z,61.87
2022-12-05T08:53:48.431Z,63.65
2022-12-05T08:54:48.443Z,61.71
2022-12-05T08:55:48.420Z,62.20
2022-12-05T08:56:48.411Z,62.68
2022-12-05T08:57:48.411Z,64.45
2022-12-05T08:58:48.393Z,59.62
2022-12-05T08:59:48.391Z,61.07
2022-12-05T09:00:48.418Z,64.78
2022-12-05T09:01:48.391Z,63.16
2022-12-05T09:02:48.431Z,67.03
2022-12-05T09:03:48.472Z,63.81
2022-12-05T09:04:53.587Z,63.16
2022-12-05T09:05:54.555Z,67.68
2022-12-05T09:06:49.358Z,62.68
2022-12-05T09:07:48.407Z,65.42
2022-12-05T09:08:48.328Z,64.45
2022-12-05T09:09:48.318Z,60.59
2022-12-05T09:10:48.316Z,59.94
2022-12-05T09:11:48.320Z,65.10
2022-12-05T09:12:48.299Z,63.16
2022-12-05T09:13:48.288Z,63.00
2022-12-05T09:14:48.288Z,63.33
2022-12-05T09:15:48.292Z,61.39
2022-12-05T09:16:48.291Z,63.33
2022-12-05T09:17:48.287Z,61.07
2022-12-05T09:18:48.258Z,61.07
2022-12-05T09:19:48.252Z,58.49
2022-12-05T09:20:48.239Z,63.65
2022-12-05T09:21:48.247Z,60.42
2022-12-05T09:22:48.229Z,61.87
2022-12-05T09:23:48.225Z,60.91
2022-12-05T09:24:48.215Z,61.23
2022-12-05T09:25:48.209Z,60.26
2022-12-05T09:26:49.203Z,61.87
2022-12-05T09:27:48.196Z,64.78
2022-12-05T09:28:48.193Z,62.68
2022-12-05T09:29:48.183Z,64.78
2022-12-05T09:30:48.222Z,62.52
2022-12-05T09:31:48.172Z,60.42
2022-12-05T09:32:48.161Z,62.36
2022-12-05T09:33:48.336Z,60.10
2022-12-05T09:34:48.148Z,61.23
2022-12-05T09:35:48.142Z,62.52
2022-12-05T09:36:48.129Z,61.87
2022-12-05T09:37:48.122Z,63.49
2022-12-05T09:38:48.154Z,60.42
2022-12-05T09:39:48.107Z,59.94
2022-12-05T09:40:48.103Z,64.45
2022-12-05T09:41:48.090Z,67.51
2022-12-05T09:42:48.089Z,61.71
2022-12-05T09:43:48.087Z,59.78
2022-12-05T09:44:48.081Z,59.30
2022-12-05T09:45:48.108Z,60.26
2022-12-05T09:46:48.080Z,60.75
2022-12-05T09:47:48.050Z,60.26
2022-12-05T09:48:48.060Z,61.87
2022-12-05T09:49:48.045Z,58.65
2022-12-05T09:50:48.065Z,60.10
2022-12-05T09:51:53.701Z,59.14
2022-12-05T09:52:50.028Z,61.55
2022-12-05T09:53:48.007Z,61.07
2022-12-05T09:54:48.032Z,61.55
2022-12-05T09:55:48.019Z,59.30
2022-12-05T09:56:48.001Z,62.20
2022-12-05T09:57:47.992Z,62.84
2022-12-05T09:58:47.986Z,60.75
2022-12-05T09:59:47.972Z,58.49
2022-12-05T10:00:47.979Z,58.17
2022-12-05T10:01:48.048Z,66.55
2022-12-05T10:02:47.951Z,63.16
2022-12-05T10:03:47.961Z,61.07
2022-12-05T10:04:47.993Z,59.46
2022-12-05T10:05:47.951Z,60.59
2022-12-05T10:06:47.983Z,60.10
2022-12-05T10:07:48.024Z,60.59
2022-12-05T10:08:47.922Z,62.52
2022-12-05T10:09:47.911Z,60.75
2022-12-05T10:10:47.907Z,60.91
2022-12-05T10:11:47.906Z,58.97
2022-12-05T10:12:47.923Z,59.62
2022-12-05T10:13:47.882Z,58.81
2022-12-05T10:14:47.927Z,58.01
2022-12-05T10:15:48.089Z,58.17
2022-12-05T10:16:47.896Z,60.91
2022-12-05T10:17:47.847Z,60.26
2022-12-05T10:18:47.851Z,63.00
2022-12-05T10:19:47.874Z,61.23
2022-12-05T10:20:47.838Z,63.65
2022-12-05T10:21:47.822Z,60.10
2022-12-05T10:22:47.840Z,63.65
2022-12-05T10:24:03.065Z,64.78
2022-12-05T10:24:49.830Z,59.46
2022-12-05T10:25:47.806Z,60.59
2022-12-05T10:26:47.817Z,59.30
2022-12-05T10:27:47.786Z,59.62
2022-12-05T10:28:47.783Z,58.33
2022-12-05T10:29:47.765Z,59.46
2022-12-05T10:30:47.827Z,59.46
2022-12-05T10:31:47.772Z,58.01
2022-12-05T10:32:48.406Z,59.94
2022-12-05T10:33:48.777Z,59.14
2022-12-05T10:34:48.767Z,62.68
2022-12-05T10:35:47.743Z,59.62
2022-12-05T10:36:47.725Z,58.97
2022-12-05T10:37:47.722Z,67.19
2022-12-05T10:38:47.743Z,61.07
2022-12-05T10:39:47.747Z,61.23
2022-12-05T10:40:47.710Z,64.29
2022-12-05T10:41:47.695Z,61.23
2022-12-05T10:42:47.684Z,62.20
2022-12-05T10:43:47.690Z,61.55
2022-12-05T10:44:47.672Z,63.16
2022-12-05T10:45:47.691Z,62.36
2022-12-05T10:46:47.724Z,62.84
2022-12-05T10:47:47.694Z,62.04
2022-12-05T10:48:47.646Z,61.55
2022-12-05T10:49:47.646Z,61.07
2022-12-05T10:50:47.659Z,62.20
2022-12-05T10:51:47.629Z,64.29
2022-12-05T10:52:47.630Z,61.71
2022-12-05T10:53:47.639Z,61.07
2022-12-05T10:54:47.592Z,62.36
2022-12-05T10:56:21.389Z,61.23
2022-12-05T10:56:49.594Z,62.52
2022-12-05T10:57:47.594Z,62.20
2022-12-05T10:58:47.615Z,63.49
2022-12-05T10:59:47.575Z,63.81
2022-12-05T11:00:47.566Z,62.84
2022-12-05T11:01:47.617Z,63.97
2022-12-05T11:02:50.116Z,64.61
2022-12-05T11:03:47.544Z,65.74
2022-12-05T11:04:47.595Z,63.00
2022-12-05T11:05:47.643Z,61.71
2022-12-05T11:06:47.527Z,63.16
2022-12-05T11:07:47.562Z,63.33
2022-12-05T11:09:04.737Z,62.20
2022-12-05T11:09:49.519Z,64.29
2022-12-05T11:10:47.511Z,62.52
2022-12-05T11:11:47.498Z,61.87
2022-12-05T11:12:47.499Z,62.36
2022-12-05T11:13:47.484Z,63.81
2022-12-05T11:14:47.469Z,64.78
2022-12-05T11:15:52.269Z,61.71
2022-12-05T11:16:48.546Z,62.84
2022-12-05T11:17:47.444Z,61.55
2022-12-05T11:18:47.463Z,63.33
2022-12-05T11:19:47.443Z,62.36
2022-12-05T11:20:47.425Z,65.74
2022-12-05T11:21:47.436Z,64.29
2022-12-05T11:22:48.962Z,63.81
2022-12-05T11:23:48.412Z,63.49
2022-12-05T11:24:47.443Z,64.45
2022-12-05T11:25:47.401Z,65.74
2022-12-05T11:26:47.394Z,63.16
2022-12-05T11:27:47.371Z,64.29
2022-12-05T11:28:47.384Z,62.20
2022-12-05T11:29:47.388Z,62.84
2022-12-05T11:30:47.360Z,62.20
2022-12-05T11:31:47.382Z,63.00
2022-12-05T11:32:47.356Z,63.81
2022-12-05T11:33:47.371Z,64.29
2022-12-05T11:34:47.342Z,64.78
2022-12-05T11:35:47.330Z,64.29
2022-12-05T11:36:47.320Z,63.16
2022-12-05T11:37:47.328Z,61.87
2022-12-05T11:38:47.349Z,64.45
2022-12-05T11:39:47.327Z,62.84
2022-12-05T11:40:47.294Z,63.16
2022-12-05T11:41:47.305Z,65.42
2022-12-05T11:42:47.282Z,63.81
2022-12-05T11:43:47.286Z,62.20
2022-12-05T11:44:47.294Z,63.33
2022-12-05T11:45:47.266Z,64.29
2022-12-05T11:46:47.381Z,63.97
2022-12-05T11:47:47.270Z,63.16
2022-12-05T11:48:47.234Z,64.29
2022-12-05T11:49:47.246Z,65.42
2022-12-05T11:50:47.256Z,63.65
2022-12-05T11:51:47.232Z,63.97
2022-12-05T11:52:47.218Z,65.26
2022-12-05T11:53:47.223Z,63.97
2022-12-05T11:55:49.211Z,64.13
2022-12-05T11:56:47.198Z,65.74
2022-12-05T11:57:51.959Z,62.68
2022-12-05T11:58:49.182Z,63.16
2022-12-05T11:59:47.181Z,63.65
2022-12-05T12:00:47.203Z,65.26
2022-12-05T12:01:47.202Z,63.16
2022-12-05T12:02:47.237Z,65.26
2022-12-05T12:03:48.210Z,65.42
2022-12-05T12:04:47.141Z,64.45
2022-12-05T12:05:47.145Z,64.29
2022-12-05T12:06:47.155Z,61.39
2022-12-05T12:07:47.205Z,65.42
2022-12-05T12:08:47.126Z,66.06
2022-12-05T12:09:47.105Z,64.13
2022-12-05T12:10:47.103Z,62.36
2022-12-05T12:11:47.102Z,63.00
2022-12-05T12:12:47.070Z,63.65
2022-12-05T12:13:47.080Z,62.84
2022-12-05T12:14:47.071Z,61.87
2022-12-05T12:15:47.063Z,63.00
2022-12-05T12:16:47.114Z,61.71
2022-12-05T12:17:47.050Z,62.20
2022-12-05T12:18:47.042Z,64.78
2022-12-05T12:19:47.050Z,63.16
2022-12-05T12:20:47.036Z,62.36
2022-12-05T12:21:47.022Z,64.29
2022-12-05T12:22:47.018Z,63.65
2022-12-05T12:23:47.011Z,65.26
2022-12-05T12:24:47.010Z,63.49
2022-12-05T12:25:47.000Z,64.13
2022-12-05T12:26:47.003Z,63.65
2022-12-05T12:27:46.983Z,64.13
2022-12-05T12:28:46.977Z,63.00
2022-12-05T12:29:46.974Z,65.10
2022-12-05T12:30:47.043Z,63.65
2022-12-05T12:31:46.988Z,62.68
2022-12-05T12:32:46.959Z,62.20
2022-12-05T12:33:46.950Z,62.84
2022-12-05T12:34:46.934Z,67.03
2022-12-05T12:35:46.947Z,64.78
2022-12-05T12:36:46.929Z,64.13
2022-12-05T12:37:46.922Z,65.42
2022-12-05T12:38:51.144Z,63.33
2022-12-05T12:39:47.906Z,63.33
2022-12-05T12:40:46.891Z,62.36
2022-12-05T12:41:46.907Z,63.65
2022-12-05T12:42:46.890Z,64.29
2022-12-05T12:43:54.724Z,63.33
2022-12-05T12:44:48.883Z,65.42
2022-12-05T12:45:46.897Z,65.58
2022-12-05T12:46:46.869Z,63.65
2022-12-05T12:47:46.853Z,64.13
2022-12-05T12:48:46.859Z,64.78
2022-12-05T12:49:46.839Z,66.71
2022-12-05T12:50:46.837Z,63.81
2022-12-05T12:51:46.834Z,64.13
2022-12-05T12:52:46.809Z,62.52
2022-12-05T12:53:46.814Z,65.10